SULAYMANIYAH INTERNATIONAL AIRPORT
  • SulyAir
  • SulyAir
1 1
Arrival

ArrivalsMore >>

Departure

DeparturesMore >>

TAF

TAF ORSU 231110Z 2312/2412 16010KT 8000 BKN040
BECMG 2317/2319 VRB04KT FEW040=

METARs

METAR ORSU 231100Z 20010KT 8000 BKN045 18/07 Q1021=